Time;durP1;ratioP1;P1;durP2;ratioP2;P2;SDS_P1;SDS_P2;PMS_P1;PMS_P2;Temp;Humidity;BMP_temperature;BMP_pressure;BME280_temperature;BME280_humidity;BME280_pressure;Samples;Min_cycle;Max_cycle;Signal;HPM_P1;HPM_P2
2021/12/23 00:01:18;;;;;;;44.20;18.00;;;;;;;-141.50;100.00;63355.56;4897904;29;20052;-79
2021/12/23 00:03:45;;;;;;;47.53;18.67;;;;;;;-141.50;100.00;63355.56;4897418;29;20345;-76
2021/12/23 00:06:12;;;;;;;40.25;17.63;;;;;;;-141.50;100.00;63355.56;4897459;29;20705;-78
2021/12/23 00:08:38;;;;;;;43.58;17.50;;;;;;;-141.50;100.00;63355.56;4899942;29;20053;-79
2021/12/23 00:11:05;;;;;;;43.10;17.55;;;;;;;-141.50;100.00;63355.56;4898427;29;20072;-77
2021/12/23 00:13:34;;;;;;;48.22;18.00;;;;;;;-141.50;100.00;63355.56;4899570;29;20111;-78
2021/12/23 00:16:03;;;;;;;40.10;17.27;;;;;;;-141.50;100.00;63355.56;4899632;29;20052;-79
2021/12/23 00:23:43;;;;;;;53.20;18.98;;;;;;;-141.50;100.00;63355.56;4921412;29;20040;-79
2021/12/23 00:26:10;;;;;;;98.93;32.08;;;;;;;-141.50;100.00;63355.56;4921288;29;20069;-77
2021/12/23 00:28:37;;;;;;;96.47;31.02;;;;;;;-141.50;100.00;63355.56;4905413;29;20060;-79
2021/12/23 00:31:05;;;;;;;64.32;22.73;;;;;;;-141.50;100.00;63355.56;4901784;29;20068;-78
2021/12/23 00:33:33;;;;;;;90.18;28.48;;;;;;;-141.50;100.00;63355.56;4900376;29;20052;-78
2021/12/23 00:36:00;;;;;;;72.88;26.13;;;;;;;-141.50;100.00;63355.56;4881028;29;20427;-79
2021/12/23 00:38:34;;;;;;;60.60;22.35;;;;;;;-141.50;100.00;63355.56;4897615;29;20052;-77
2021/12/23 00:41:03;;;;;;;72.57;24.40;;;;;;;-141.50;100.00;63355.56;4880262;29;20049;-79
2021/12/23 00:43:31;;;;;;;56.22;21.20;;;;;;;-141.50;100.00;63355.56;4900110;29;20104;-79
2021/12/23 00:45:58;;;;;;;57.58;21.00;;;;;;;-141.50;100.00;63355.56;4890607;29;20053;-81
2021/12/23 00:48:26;;;;;;;48.67;18.30;;;;;;;-141.50;100.00;63355.56;4900141;29;20067;-79
2021/12/23 00:50:53;;;;;;;46.55;18.85;;;;;;;-141.50;100.00;63355.56;4897897;29;20108;-78
2021/12/23 00:53:22;;;;;;;42.08;17.85;;;;;;;-141.50;100.00;63355.56;4898732;29;20505;-80
2021/12/23 00:55:53;;;;;;;43.13;17.67;;;;;;;-141.50;100.00;63355.56;4895490;29;20052;-78
2021/12/23 00:58:22;;;;;;;45.78;17.92;;;;;;;-141.50;100.00;63355.56;4894951;29;20052;-76
2021/12/23 01:00:49;;;;;;;43.67;16.58;;;;;;;-141.50;100.00;63355.56;4894033;29;20493;-78
2021/12/23 01:03:16;;;;;;;36.35;15.98;;;;;;;-141.50;100.00;63355.56;4893887;29;20524;-77
2021/12/23 01:05:43;;;;;;;42.38;17.10;;;;;;;-141.50;100.00;63355.56;4893502;29;20453;-78
2021/12/23 01:08:10;;;;;;;39.03;16.20;;;;;;;-141.50;100.00;63355.56;4894408;29;20112;-78
2021/12/23 01:10:37;;;;;;;39.20;16.50;;;;;;;-141.50;100.00;63355.56;4892942;29;20084;-77
2021/12/23 01:13:05;;;;;;;34.97;15.10;;;;;;;-141.50;100.00;63355.56;4894852;29;20509;-79
2021/12/23 01:18:20;;;;;;;33.05;15.50;;;;;;;-141.50;100.00;63355.56;4894370;29;20132;-78
2021/12/23 01:20:52;;;;;;;26.35;10.77;;;;;;;-141.50;100.00;63355.56;4892896;29;20474;-78
2021/12/23 01:23:22;;;;;;;34.53;15.13;;;;;;;-141.50;100.00;63355.56;4876941;29;20469;-78
2021/12/23 01:25:51;;;;;;;40.92;15.13;;;;;;;-141.50;100.00;63355.56;4890911;29;20053;-77
2021/12/23 01:28:18;;;;;;;39.10;15.57;;;;;;;-141.50;100.00;63355.56;4893232;29;20056;-77
2021/12/23 01:30:45;;;;;;;37.67;15.55;;;;;;;-141.50;100.00;63355.56;4892651;29;20053;-77
2021/12/23 01:33:12;;;;;;;37.78;14.45;;;;;;;-141.50;100.00;63355.56;4894417;29;20083;-78
2021/12/23 01:35:39;;;;;;;33.28;14.82;;;;;;;-141.50;100.00;63355.56;4892875;29;20132;-79
2021/12/23 01:38:07;;;;;;;38.85;15.50;;;;;;;-141.50;100.00;63355.56;4894185;29;20525;-78
2021/12/23 01:40:34;;;;;;;35.75;15.00;;;;;;;-141.50;100.00;63355.56;4892933;29;20064;-78
2021/12/23 01:43:03;;;;;;;34.28;15.07;;;;;;;-141.50;100.00;63355.56;4897991;29;20052;-78
2021/12/23 01:45:32;;;;;;;34.05;15.75;;;;;;;-141.50;100.00;63355.56;4896540;29;20760;-78
2021/12/23 01:48:01;;;;;;;35.40;14.80;;;;;;;-141.50;100.00;63355.56;4896527;29;20458;-78
2021/12/23 01:50:28;;;;;;;31.02;13.60;;;;;;;-141.50;100.00;63355.56;4893953;29;20079;-78
2021/12/23 01:52:58;;;;;;;32.85;14.65;;;;;;;-141.50;100.00;63355.56;4896079;29;20091;-78
2021/12/23 01:55:24;;;;;;;34.83;14.82;;;;;;;-141.50;100.00;63355.56;4879289;29;20072;-79
2021/12/23 01:57:52;;;;;;;32.97;14.32;;;;;;;-141.50;100.00;63355.56;4879743;29;20095;-78
2021/12/23 02:00:22;;;;;;;33.22;14.95;;;;;;;-141.50;100.00;63355.56;4895581;29;20088;-77
2021/12/23 02:02:51;;;;;;;30.45;13.82;;;;;;;-141.50;100.00;63355.56;4895680;29;20482;-79
2021/12/23 02:05:18;;;;;;;33.05;14.73;;;;;;;-141.50;100.00;63355.56;4895619;29;20527;-78
2021/12/23 02:07:45;;;;;;;32.22;14.20;;;;;;;-141.50;100.00;63355.56;4896745;29;20112;-79
2021/12/23 02:10:12;;;;;;;31.55;13.85;;;;;;;-141.50;100.00;63355.56;4894674;29;20085;-78
2021/12/23 02:12:42;;;;;;;29.02;13.55;;;;;;;-141.50;100.00;63355.56;4898545;29;20056;-78
2021/12/23 02:15:10;;;;;;;34.35;14.60;;;;;;;-141.50;100.00;63355.56;4899454;29;20053;-78
2021/12/23 02:17:38;;;;;;;28.55;12.57;;;;;;;-141.50;100.00;63355.56;4899390;29;20084;-79
2021/12/23 02:20:12;;;;;;;31.92;14.43;;;;;;;-141.50;100.00;63355.56;4898063;29;20056;-79
2021/12/23 02:22:40;;;;;;;34.63;15.07;;;;;;;-141.50;100.00;63355.56;4884654;29;20052;-79
2021/12/23 02:25:08;;;;;;;35.25;15.57;;;;;;;-141.50;100.00;63355.56;4900643;29;20060;-79
2021/12/23 02:27:35;;;;;;;31.60;13.75;;;;;;;-141.50;100.00;63355.56;4901972;29;20140;-78
2021/12/23 02:30:07;;;;;;;33.90;14.85;;;;;;;-141.50;100.00;63355.56;4899192;29;20052;-77
2021/12/23 02:32:38;;;;;;;33.65;15.23;;;;;;;-141.50;100.00;63355.56;4881720;29;20489;-79
2021/12/23 02:35:09;;;;;;;32.85;14.52;;;;;;;-141.50;100.00;63355.56;4895949;29;20092;-79
2021/12/23 02:37:36;;;;;;;34.72;14.75;;;;;;;-141.50;100.00;63355.56;4896135;29;20080;-78
2021/12/23 02:40:03;;;;;;;29.80;13.77;;;;;;;-141.50;100.00;63355.56;4878227;29;20941;-78
2021/12/23 02:42:30;;;;;;;30.05;13.93;;;;;;;-141.50;100.00;63355.56;4896551;29;20577;-80
2021/12/23 02:44:58;;;;;;;35.80;15.23;;;;;;;-141.50;100.00;63355.56;4896933;29;20084;-77
2021/12/23 02:47:25;;;;;;;34.75;15.65;;;;;;;-141.50;100.00;63355.56;4895911;29;20060;-77
2021/12/23 02:49:51;;;;;;;36.35;13.90;;;;;;;-141.50;100.00;63355.56;4879896;29;20085;-77
2021/12/23 02:52:18;;;;;;;32.85;14.90;;;;;;;-141.50;100.00;63355.56;4897695;29;20060;-77
2021/12/23 02:54:57;;;;;;;32.50;14.30;;;;;;;-141.50;100.00;63355.56;4894305;29;20061;-77
2021/12/23 02:57:33;;;;;;;29.63;13.55;;;;;;;-141.50;100.00;63355.56;4900247;29;20052;-78
2021/12/23 03:00:00;;;;;;;33.33;13.88;;;;;;;-141.50;100.00;63355.56;4898063;29;20143;-77
2021/12/23 03:02:26;;;;;;;33.22;13.77;;;;;;;-141.50;100.00;63355.56;4899835;29;20048;-79
2021/12/23 03:04:53;;;;;;;30.70;12.43;;;;;;;-141.50;100.00;63355.56;4900583;29;20421;-79
2021/12/23 03:07:19;;;;;;;31.52;12.63;;;;;;;-141.50;100.00;63355.56;4907912;29;20064;-79
2021/12/23 03:09:47;;;;;;;28.02;12.10;;;;;;;-141.50;100.00;63355.56;4905767;29;20052;-77
2021/12/23 03:12:14;;;;;;;26.35;11.82;;;;;;;-141.50;100.00;63355.56;4898950;29;20052;-79
2021/12/23 03:14:41;;;;;;;27.15;12.00;;;;;;;-141.50;100.00;63355.56;4899114;29;20139;-78
2021/12/23 03:17:08;;;;;;;28.70;12.48;;;;;;;-141.50;100.00;63355.56;4897040;29;20153;-78
2021/12/23 03:19:34;;;;;;;27.52;12.82;;;;;;;-141.50;100.00;63355.56;4898128;29;20052;-78
2021/12/23 03:22:01;;;;;;;29.73;11.52;;;;;;;-141.50;100.00;63355.56;4899951;29;20053;-78
2021/12/23 03:24:27;;;;;;;25.17;12.07;;;;;;;-141.50;100.00;63355.56;4898149;29;20080;-78
2021/12/23 03:26:54;;;;;;;29.73;12.15;;;;;;;-141.50;100.00;63355.56;4898205;29;20124;-78
2021/12/23 03:29:20;;;;;;;27.13;12.23;;;;;;;-141.50;100.00;63355.56;4895678;29;20047;-77
2021/12/23 03:31:47;;;;;;;27.55;12.48;;;;;;;-141.50;100.00;63355.56;4895957;29;20056;-78
2021/12/23 03:34:14;;;;;;;29.23;12.73;;;;;;;-141.50;100.00;63355.56;4899824;29;20124;-78
2021/12/23 03:36:40;;;;;;;25.98;12.73;;;;;;;-141.50;100.00;63355.56;4897608;29;20080;-78
2021/12/23 03:39:07;;;;;;;24.30;12.18;;;;;;;-141.50;100.00;63355.56;4901002;29;20084;-78
2021/12/23 03:41:34;;;;;;;30.80;12.68;;;;;;;-141.50;100.00;63355.56;4897678;29;20513;-78
2021/12/23 03:44:01;;;;;;;31.02;13.05;;;;;;;-141.50;100.00;63355.56;4898230;29;20090;-78
2021/12/23 03:46:27;;;;;;;26.80;12.38;;;;;;;-141.50;100.00;63355.56;4896882;29;20057;-78
2021/12/23 03:48:54;;;;;;;29.50;12.98;;;;;;;-141.50;100.00;63355.56;4895539;29;20124;-78
2021/12/23 03:51:20;;;;;;;27.40;12.57;;;;;;;-141.50;100.00;63355.56;4895823;29;20494;-77
2021/12/23 03:53:47;;;;;;;36.70;14.27;;;;;;;-141.50;100.00;63355.56;4895153;29;20083;-77
2021/12/23 03:56:14;;;;;;;34.92;14.30;;;;;;;-141.50;100.00;63355.56;4894142;29;20509;-78
2021/12/23 03:58:41;;;;;;;31.48;13.52;;;;;;;-141.50;100.00;63355.56;4896496;29;20087;-77
2021/12/23 04:01:08;;;;;;;29.92;13.10;;;;;;;-141.50;100.00;63355.56;4896685;29;20527;-78
2021/12/23 04:03:35;;;;;;;28.63;13.13;;;;;;;-141.50;100.00;63355.56;4895632;29;20076;-78
2021/12/23 04:06:01;;;;;;;28.50;13.50;;;;;;;-141.50;100.00;63355.56;4895579;29;20080;-78
2021/12/23 04:08:28;;;;;;;31.60;13.68;;;;;;;-141.50;100.00;63355.56;4893707;29;20175;-77
2021/12/23 04:10:58;;;;;;;30.35;12.88;;;;;;;-141.50;100.00;63355.56;4895927;29;20115;-78
2021/12/23 04:13:28;;;;;;;29.13;12.85;;;;;;;-141.50;100.00;63355.56;4897941;29;20052;-79
2021/12/23 04:15:54;;;;;;;33.28;13.63;;;;;;;-141.50;100.00;63355.56;4904952;29;20120;-78
2021/12/23 04:18:22;;;;;;;27.48;12.88;;;;;;;-141.50;100.00;63355.56;4903051;29;20052;-77
2021/12/23 04:20:55;;;;;;;30.80;13.98;;;;;;;-141.50;100.00;63355.56;4903043;29;20109;-79
2021/12/23 04:23:24;;;;;;;26.48;13.00;;;;;;;-141.50;100.00;63355.56;4905353;29;20498;-78
2021/12/23 04:25:52;;;;;;;30.40;12.50;;;;;;;-141.50;100.00;63355.56;4918270;29;20048;-78
2021/12/23 04:28:19;;;;;;;28.48;11.95;;;;;;;-141.50;100.00;63355.56;4902922;29;20086;-79
2021/12/23 04:30:46;;;;;;;29.45;12.90;;;;;;;-141.50;100.00;63355.56;4904890;29;20085;-78
2021/12/23 04:33:15;;;;;;;25.98;11.88;;;;;;;-141.50;100.00;63355.56;4904530;29;20160;-79
2021/12/23 04:35:41;;;;;;;24.13;11.05;;;;;;;-141.50;100.00;63355.56;4901859;29;20111;-79
2021/12/23 04:38:08;;;;;;;27.75;11.60;;;;;;;-141.50;100.00;63355.56;4904416;29;20155;-77
2021/12/23 04:40:36;;;;;;;30.88;13.00;;;;;;;-141.50;100.00;63355.56;4905348;29;20048;-79
2021/12/23 04:43:08;;;;;;;27.48;12.13;;;;;;;-141.50;100.00;63355.56;4909893;29;20036;-79
2021/12/23 04:45:35;;;;;;;24.98;10.90;;;;;;;-141.50;100.00;63355.56;4917686;29;20053;-79
2021/12/23 04:48:02;;;;;;;26.15;11.23;;;;;;;-141.50;100.00;63355.56;4906112;29;20095;-79
2021/12/23 04:50:29;;;;;;;26.35;11.20;;;;;;;-141.50;100.00;63355.56;4911311;29;20052;-77
2021/12/23 04:52:55;;;;;;;25.52;10.95;;;;;;;-141.50;100.00;63355.56;4906395;29;20056;-80
2021/12/23 04:55:22;;;;;;;25.02;11.45;;;;;;;-141.50;100.00;63355.56;4899117;29;20509;-78
2021/12/23 04:57:48;;;;;;;22.58;10.88;;;;;;;-141.50;100.00;63355.56;4898682;29;20085;-78
2021/12/23 05:00:19;;;;;;;27.08;11.70;;;;;;;-141.50;100.00;63355.56;4897940;29;20108;-78
2021/12/23 05:02:46;;;;;;;22.02;10.98;;;;;;;-141.50;100.00;63355.56;4899784;29;20052;-79
2021/12/23 05:05:14;;;;;;;22.40;10.50;;;;;;;-141.50;100.00;63355.56;4901018;29;20087;-78
2021/12/23 05:07:41;;;;;;;19.92;9.60;;;;;;;-141.50;100.00;63355.56;4894584;29;20052;-78
2021/12/23 05:10:10;;;;;;;23.45;10.55;;;;;;;-141.50;100.00;63355.56;4877972;29;20068;-77
2021/12/23 05:12:42;;;;;;;23.52;9.68;;;;;;;-141.50;100.00;63355.56;4864307;29;20073;-78
2021/12/23 05:15:15;;;;;;;23.98;10.65;;;;;;;-141.50;100.00;63355.56;4896653;29;20052;-79
2021/12/23 05:17:43;;;;;;;22.10;10.35;;;;;;;-141.50;100.00;63355.56;4898946;29;20057;-79
2021/12/23 05:20:12;;;;;;;21.88;10.30;;;;;;;-141.50;100.00;63355.56;4894509;29;20709;-79
2021/12/23 05:22:39;;;;;;;22.13;10.68;;;;;;;-141.50;100.00;63355.56;4896614;29;20072;-79
2021/12/23 05:25:07;;;;;;;25.60;10.30;;;;;;;-141.50;100.00;63355.56;4900031;29;20101;-79
2021/12/23 05:27:34;;;;;;;20.60;9.98;;;;;;;-141.50;100.00;63355.56;4901607;29;20056;-78
2021/12/23 05:30:01;;;;;;;23.00;10.18;;;;;;;-141.50;100.00;63355.56;4904288;29;20052;-77
2021/12/23 05:32:28;;;;;;;21.90;10.05;;;;;;;-141.50;100.00;63355.56;4901160;29;20461;-77
2021/12/23 05:34:55;;;;;;;22.05;10.23;;;;;;;-141.50;100.00;63355.56;4877753;29;20107;-79
2021/12/23 05:37:22;;;;;;;21.38;9.43;;;;;;;-141.50;100.00;63355.56;4878081;29;20049;-79
2021/12/23 05:39:48;;;;;;;20.90;9.05;;;;;;;-141.50;100.00;63355.56;4894986;29;20052;-79
2021/12/23 05:42:15;;;;;;;18.23;9.15;;;;;;;-141.50;100.00;63355.56;4895906;29;20108;-78
2021/12/23 05:44:41;;;;;;;17.95;8.55;;;;;;;-141.50;100.00;63355.56;4904783;29;20049;-80
2021/12/23 05:47:08;;;;;;;17.77;8.60;;;;;;;-141.50;100.00;63355.56;4905604;29;20120;-80
2021/12/23 05:49:34;;;;;;;19.35;8.25;;;;;;;-141.50;100.00;63355.56;4901664;29;20184;-80
2021/12/23 05:52:01;;;;;;;21.33;8.55;;;;;;;-141.50;100.00;63355.56;4901025;29;20481;-80
2021/12/23 05:54:28;;;;;;;15.70;7.55;;;;;;;-141.50;100.00;63355.56;4901658;29;20589;-79
2021/12/23 05:56:57;;;;;;;14.65;7.57;;;;;;;-141.50;100.00;63355.56;4900004;29;20103;-81
2021/12/23 05:59:23;;;;;;;21.35;8.57;;;;;;;-141.50;100.00;63355.56;4883933;29;20056;-80
2021/12/23 06:01:50;;;;;;;19.33;8.32;;;;;;;-141.50;100.00;63355.56;4899495;29;20124;-80
2021/12/23 06:04:17;;;;;;;17.73;8.35;;;;;;;-141.50;100.00;63355.56;4896604;29;20092;-77
2021/12/23 06:06:43;;;;;;;18.73;9.02;;;;;;;-141.50;100.00;63355.56;4885101;29;20477;-77
2021/12/23 06:09:10;;;;;;;21.83;9.43;;;;;;;-141.50;100.00;63355.56;4873134;29;20068;-78
2021/12/23 06:11:36;;;;;;;22.05;9.80;;;;;;;-141.50;100.00;63355.56;4882725;29;20061;-78
2021/12/23 06:14:03;;;;;;;19.40;9.13;;;;;;;-141.50;100.00;63355.56;4889069;29;20112;-77
2021/12/23 06:16:29;;;;;;;19.00;8.80;;;;;;;-141.50;100.00;63355.56;4889112;29;20056;-77
2021/12/23 06:18:56;;;;;;;23.15;9.77;;;;;;;-141.50;100.00;63355.56;4893116;29;20139;-77
2021/12/23 06:21:27;;;;;;;17.92;8.77;;;;;;;-141.50;100.00;63355.56;4882662;29;20057;-78
2021/12/23 06:23:54;;;;;;;18.92;9.10;;;;;;;-141.50;100.00;63355.56;4888907;29;20116;-79
2021/12/23 06:26:21;;;;;;;23.35;8.95;;;;;;;-141.50;100.00;63355.56;4874142;29;20084;-78
2021/12/23 06:28:48;;;;;;;19.95;8.82;;;;;;;-141.50;100.00;63355.56;4873313;29;20060;-78
2021/12/23 06:31:15;;;;;;;19.02;8.95;;;;;;;-141.50;100.00;63355.56;4901010;29;20577;-77
2021/12/23 06:33:41;;;;;;;18.27;8.70;;;;;;;-141.50;100.00;63355.56;4890734;29;20596;-76
2021/12/23 06:36:08;;;;;;;16.35;8.45;;;;;;;-141.50;100.00;63355.56;4906393;29;20095;-78
2021/12/23 06:38:35;;;;;;;18.52;8.65;;;;;;;-141.50;100.00;63355.56;4890111;29;20514;-77
2021/12/23 06:41:02;;;;;;;20.48;8.13;;;;;;;-141.50;100.00;63355.56;4887798;29;20080;-77
2021/12/23 06:43:28;;;;;;;20.05;8.23;;;;;;;-141.50;100.00;63355.56;4889255;29;20095;-76
2021/12/23 06:45:55;;;;;;;19.98;8.23;;;;;;;-141.50;100.00;63355.56;4872332;29;20140;-76
2021/12/23 06:48:21;;;;;;;15.80;7.32;;;;;;;-141.50;100.00;63355.56;4870724;29;20063;-75
2021/12/23 06:50:53;;;;;;;21.45;7.53;;;;;;;-141.50;100.00;63355.56;4871308;29;20648;-79
2021/12/23 06:53:20;;;;;;;23.52;7.60;;;;;;;-141.50;100.00;63355.56;4879668;29;20067;-79
2021/12/23 06:55:49;;;;;;;20.85;7.75;;;;;;;-141.50;100.00;63355.56;4908186;29;20154;-79
2021/12/23 06:58:17;;;;;;;15.10;7.20;;;;;;;-141.50;100.00;63355.56;4907957;29;20048;-77
2021/12/23 07:00:44;;;;;;;18.70;7.72;;;;;;;-141.50;100.00;63355.56;4909919;29;20056;-78
2021/12/23 07:03:12;;;;;;;18.75;7.53;;;;;;;-141.50;100.00;63355.56;4896126;29;20067;-78
2021/12/23 07:05:38;;;;;;;15.98;6.93;;;;;;;-141.50;100.00;63355.56;4892037;29;20056;-79
2021/12/23 07:08:10;;;;;;;18.65;7.97;;;;;;;-141.50;100.00;63355.56;4875696;29;20059;-79
2021/12/23 07:10:37;;;;;;;16.20;7.30;;;;;;;-141.50;100.00;63355.56;4889954;29;20148;-78
2021/12/23 07:13:04;;;;;;;14.90;6.93;;;;;;;-141.50;100.00;63355.56;4885880;29;20524;-78
2021/12/23 07:15:33;;;;;;;21.73;7.75;;;;;;;-141.50;100.00;63355.56;4902112;29;20505;-79
2021/12/23 07:18:00;;;;;;;16.65;6.95;;;;;;;-141.50;100.00;63355.56;4904645;29;20507;-78
2021/12/23 07:20:28;;;;;;;16.73;7.15;;;;;;;-141.50;100.00;63355.56;4910423;29;20580;-79
2021/12/23 07:22:55;;;;;;;18.63;8.02;;;;;;;-141.50;100.00;63355.56;4912830;29;20076;-79
2021/12/23 07:25:22;;;;;;;15.63;7.10;;;;;;;-141.50;100.00;63355.56;4896765;29;20056;-78
2021/12/23 07:27:48;;;;;;;19.80;7.78;;;;;;;-141.50;100.00;63355.56;4913752;29;20084;-78
2021/12/23 07:30:18;;;;;;;21.05;7.75;;;;;;;-141.50;100.00;63355.56;4914706;29;20320;-78
2021/12/23 07:32:47;;;;;;;16.05;7.00;;;;;;;-141.50;100.00;63355.56;4908633;29;20068;-77
2021/12/23 07:35:15;;;;;;;20.60;8.65;;;;;;;-141.50;100.00;63355.56;4894472;29;20053;-77
2021/12/23 07:37:43;;;;;;;25.35;11.00;;;;;;;-141.50;100.00;63355.56;4895804;29;20052;-79
2021/12/23 07:40:13;;;;;;;23.83;9.90;;;;;;;-141.50;100.00;63355.56;4883317;29;20552;-79
2021/12/23 07:42:51;;;;;;;19.80;9.20;;;;;;;-141.50;100.00;63355.56;4894140;29;20131;-79
2021/12/23 07:45:19;;;;;;;24.58;9.00;;;;;;;-141.50;100.00;63355.56;4868450;29;20091;-78
2021/12/23 07:47:46;;;;;;;18.40;8.73;;;;;;;-141.50;100.00;63355.56;4887858;29;20136;-77
2021/12/23 07:50:12;;;;;;;21.77;8.55;;;;;;;-141.50;100.00;63355.56;4898244;29;20063;-79
2021/12/23 07:52:39;;;;;;;19.27;7.85;;;;;;;-141.50;100.00;63355.56;4901979;29;20068;-79
2021/12/23 07:55:06;;;;;;;21.40;7.95;;;;;;;-141.50;100.00;63355.56;4893326;29;20163;-78
2021/12/23 07:57:36;;;;;;;16.50;7.80;;;;;;;-141.50;100.00;63355.56;4893497;29;20060;-80
2021/12/23 08:00:04;;;;;;;15.52;7.55;;;;;;;-141.50;100.00;63355.56;4892439;29;20133;-76
2021/12/23 08:02:31;;;;;;;19.40;7.13;;;;;;;-141.50;100.00;63355.56;4893250;29;20052;-77
2021/12/23 08:04:58;;;;;;;17.35;7.50;;;;;;;-141.50;100.00;63355.56;4894334;29;20060;-78
2021/12/23 08:07:25;;;;;;;15.35;7.10;;;;;;;-141.50;100.00;63355.56;4894778;29;20116;-77
2021/12/23 08:09:51;;;;;;;18.02;8.15;;;;;;;-141.50;100.00;63355.56;4896277;29;20052;-77
2021/12/23 08:12:18;;;;;;;25.70;10.07;;;;;;;-141.50;100.00;63355.56;4896716;29;20769;-77
2021/12/23 08:14:44;;;;;;;25.17;9.55;;;;;;;-141.50;100.00;63355.56;4902490;29;20111;-77
2021/12/23 08:17:31;;;;;;;20.80;8.63;;;;;;;-141.50;100.00;63355.56;4890480;29;20152;-76
2021/12/23 08:19:57;;;;;;;20.58;8.45;;;;;;;-141.50;100.00;63355.56;4891588;29;20087;-77
2021/12/23 08:22:24;;;;;;;18.67;8.13;;;;;;;-141.50;100.00;63355.56;4892809;29;20543;-78
2021/12/23 08:24:50;;;;;;;19.13;8.38;;;;;;;-141.50;100.00;63355.56;4908758;29;20085;-77
2021/12/23 08:27:17;;;;;;;20.90;8.43;;;;;;;-141.50;100.00;63355.56;4893062;29;20056;-78
2021/12/23 08:29:43;;;;;;;21.40;8.40;;;;;;;-141.50;100.00;63355.56;4894964;29;20057;-76
2021/12/23 08:32:10;;;;;;;23.33;8.80;;;;;;;-141.50;100.00;63355.56;4896422;29;20104;-79
2021/12/23 08:34:37;;;;;;;23.33;10.10;;;;;;;-141.50;100.00;63355.56;4893547;29;20068;-78
2021/12/23 08:37:06;;;;;;;25.42;9.52;;;;;;;-141.50;100.00;63355.56;4894614;29;20147;-77
2021/12/23 08:39:33;;;;;;;20.77;8.93;;;;;;;-141.50;100.00;63355.56;4892744;29;20087;-76
2021/12/23 08:41:59;;;;;;;25.00;9.73;;;;;;;-141.50;100.00;63355.56;4892742;29;20049;-76
2021/12/23 08:44:26;;;;;;;20.45;9.18;;;;;;;-141.50;100.00;63355.56;4895629;29;20053;-79
2021/12/23 08:46:52;;;;;;;21.75;8.48;;;;;;;-141.50;100.00;63355.56;4896903;29;20049;-77
2021/12/23 08:49:19;;;;;;;22.95;8.25;;;;;;;-141.50;100.00;63355.56;4893799;29;20059;-77
2021/12/23 08:51:45;;;;;;;18.75;8.35;;;;;;;-141.50;100.00;63355.56;4884545;29;20280;-77
2021/12/23 08:54:12;;;;;;;17.15;8.23;;;;;;;-141.50;100.00;63355.56;4885203;29;20052;-77
2021/12/23 08:56:39;;;;;;;15.43;7.72;;;;;;;-141.50;100.00;63355.56;4869181;29;20052;-77
2021/12/23 08:59:06;;;;;;;22.20;8.10;;;;;;;-141.50;100.00;63355.56;4890344;29;20085;-78
2021/12/23 09:01:33;;;;;;;16.63;7.75;;;;;;;-141.50;100.00;63355.56;4899427;29;20087;-76
2021/12/23 09:04:00;;;;;;;16.63;7.35;;;;;;;-141.50;100.00;63355.56;4925513;28;20055;-78
2021/12/23 09:06:27;;;;;;;16.50;7.07;;;;;;;-141.50;100.00;63355.56;4931811;29;20055;-78
2021/12/23 09:08:54;;;;;;;15.30;7.00;;;;;;;-141.50;100.00;63355.56;4924307;29;20178;-76
2021/12/23 09:11:22;;;;;;;18.67;7.40;;;;;;;-141.50;100.00;63355.56;4891847;29;20143;-77
2021/12/23 09:13:49;;;;;;;16.98;7.35;;;;;;;-141.50;100.00;63355.56;4893147;29;20056;-77
2021/12/23 09:16:15;;;;;;;20.90;8.23;;;;;;;-141.50;100.00;63355.56;4894467;29;20087;-77
2021/12/23 09:18:42;;;;;;;18.55;7.13;;;;;;;-141.50;100.00;63355.56;4893222;29;20059;-78
2021/12/23 09:21:10;;;;;;;16.83;7.80;;;;;;;-141.50;100.00;63355.56;4893131;29;20143;-77
2021/12/23 09:23:58;;;;;;;21.17;8.35;;;;;;;-141.50;100.00;63355.56;4893478;29;20079;-78
2021/12/23 09:26:25;;;;;;;19.88;6.78;;;;;;;-141.50;100.00;63355.56;4893071;29;20513;-77
2021/12/23 09:29:06;;;;;;;16.02;6.40;;;;;;;-141.50;100.00;63355.56;4893331;29;20493;-77
2021/12/23 09:34:18;;;;;;;18.00;7.55;;;;;;;-141.50;100.00;63355.56;4892954;29;20095;-74
2021/12/23 09:36:44;;;;;;;19.00;7.75;;;;;;;-141.50;100.00;63355.56;4879933;29;20052;-78
2021/12/23 09:39:11;;;;;;;17.70;7.60;;;;;;;-141.50;100.00;63355.56;4898241;29;20056;-76
2021/12/23 09:41:40;;;;;;;20.42;7.53;;;;;;;-141.50;100.00;63355.56;4907158;29;20055;-78
2021/12/23 09:44:09;;;;;;;16.52;7.32;;;;;;;-141.50;100.00;63355.56;4894231;29;20151;-77
2021/12/23 09:46:37;;;;;;;15.75;6.95;;;;;;;-141.50;100.00;63355.56;4893453;29;20060;-77
2021/12/23 09:49:06;;;;;;;15.63;7.03;;;;;;;-141.50;100.00;63355.56;4893755;29;20154;-78
2021/12/23 09:51:35;;;;;;;17.63;8.38;;;;;;;-141.50;100.00;63355.56;4893779;29;20056;-77
2021/12/23 09:54:05;;;;;;;15.98;7.88;;;;;;;-141.50;100.00;63355.56;4895232;29;20144;-78
2021/12/23 09:56:33;;;;;;;17.75;7.40;;;;;;;-141.50;100.00;63355.56;4893904;29;20057;-76
2021/12/23 09:59:06;;;;;;;18.92;8.68;;;;;;;-141.50;100.00;63355.56;4876752;29;20175;-77
2021/12/23 10:01:34;;;;;;;19.40;8.35;;;;;;;-141.50;100.00;63355.56;4893143;29;20421;-76
2021/12/23 10:04:02;;;;;;;21.33;8.75;;;;;;;-141.50;100.00;63355.56;4894446;29;20159;-77
2021/12/23 10:06:28;;;;;;;17.80;8.02;;;;;;;-141.50;100.00;63355.56;4892189;29;20091;-78
2021/12/23 10:08:55;;;;;;;19.80;7.80;;;;;;;-141.50;100.00;63355.56;4886158;29;20120;-77
2021/12/23 10:32:00;;;;;;;21.33;10.60;;;;;;;-141.50;100.00;63355.56;4912164;29;20111;-76
2021/12/23 10:40:08;;;;;;;26.80;11.05;;;;;;;-141.50;100.00;63355.56;4914830;29;20441;-75
2021/12/23 10:42:35;;;;;;;31.60;15.00;;;;;;;-141.50;100.00;63355.56;4914624;29;20048;-77
2021/12/23 10:45:10;;;;;;;25.98;10.60;;;;;;;-141.50;100.00;63355.56;4891105;29;20573;-77
2021/12/23 10:48:04;;;;;;;18.92;8.68;;;;;;;-141.50;100.00;63355.56;4886559;29;20076;-78
2021/12/23 10:50:44;;;;;;;31.85;11.27;;;;;;;-141.50;100.00;63355.56;4895928;29;20056;-78
2021/12/23 10:59:20;;;;;;;19.23;10.05;;;;;;;-141.50;100.00;63355.56;4895140;29;20084;-76
2021/12/23 11:02:22;;;;;;;19.40;8.90;;;;;;;-141.50;100.00;63355.56;4879946;29;20116;-75
2021/12/23 11:05:07;;;;;;;19.58;9.40;;;;;;;-141.50;100.00;63355.56;4896912;29;20072;-76
2021/12/23 11:07:39;;;;;;;17.08;9.07;;;;;;;-141.50;100.00;63355.56;4896691;29;20060;-75
2021/12/23 11:10:17;;;;;;;19.70;9.40;;;;;;;-141.50;100.00;63355.56;4894458;29;20140;-78
2021/12/23 11:38:47;;;;;;;23.63;11.43;;;;;;;-141.50;100.00;63355.56;4897269;29;20060;-75
2021/12/23 11:41:31;;;;;;;23.35;11.80;;;;;;;-141.50;100.00;63355.56;4893441;29;20084;-78
2021/12/23 11:44:00;;;;;;;25.35;12.60;;;;;;;-141.50;100.00;63355.56;4887284;29;20490;-77
2021/12/23 11:46:46;;;;;;;28.48;12.75;;;;;;;-141.50;100.00;63355.56;4878832;29;20052;-76
2021/12/23 11:49:14;;;;;;;25.77;12.57;;;;;;;-141.50;100.00;63355.56;4892873;29;20076;-77
2021/12/23 11:54:31;;;;;;;27.17;13.48;;;;;;;-141.50;100.00;63355.56;4892334;29;20076;-77
2021/12/23 11:57:16;;;;;;;26.13;13.60;;;;;;;-141.50;100.00;63355.56;4908883;29;20726;-77
2021/12/23 11:59:57;;;;;;;24.08;12.57;;;;;;;-141.50;100.00;63355.56;4910971;29;20155;-77
2021/12/23 12:02:24;;;;;;;25.73;13.25;;;;;;;-141.50;100.00;63355.56;4910050;29;20056;-76
2021/12/23 12:04:59;;;;;;;25.33;13.02;;;;;;;-141.50;100.00;63355.56;4910440;29;20416;-76
2021/12/23 12:07:27;;;;;;;27.23;13.02;;;;;;;-141.50;100.00;63355.56;4893484;29;20060;-78
2021/12/23 12:09:56;;;;;;;28.40;13.18;;;;;;;-141.50;100.00;63355.56;4912346;29;20059;-77
2021/12/23 12:12:23;;;;;;;26.98;13.48;;;;;;;-141.50;100.00;63355.56;4909226;29;20143;-78
2021/12/23 12:14:51;;;;;;;23.95;13.00;;;;;;;-141.50;100.00;63355.56;4891805;29;20081;-78